sensor_id;sensor_type;location;lat;lon;timestamp;P1;durP1;ratioP1;P2;durP2;ratioP2
45642;SDS011;31358;46.008;11.144;2023-03-05T00:00:02;29.05;;;16.92;;
45642;SDS011;31358;46.008;11.144;2023-03-05T00:02:29;28.00;;;16.23;;
45642;SDS011;31358;46.008;11.144;2023-03-05T00:04:56;29.95;;;15.73;;
45642;SDS011;31358;46.008;11.144;2023-03-05T00:07:22;29.73;;;17.15;;
45642;SDS011;31358;46.008;11.144;2023-03-05T00:09:47;32.00;;;15.98;;
45642;SDS011;31358;46.008;11.144;2023-03-05T00:12:13;31.55;;;15.90;;
45642;SDS011;31358;46.008;11.144;2023-03-05T00:14:39;27.25;;;15.43;;
45642;SDS011;31358;46.008;11.144;2023-03-05T00:17:04;30.40;;;16.38;;
45642;SDS011;31358;46.008;11.144;2023-03-05T00:19:30;31.17;;;18.42;;
45642;SDS011;31358;46.008;11.144;2023-03-05T00:21:56;34.05;;;19.60;;
45642;SDS011;31358;46.008;11.144;2023-03-05T00:24:21;34.28;;;18.17;;
45642;SDS011;31358;46.008;11.144;2023-03-05T00:26:47;40.05;;;23.00;;
45642;SDS011;31358;46.008;11.144;2023-03-05T00:29:14;42.50;;;20.25;;
45642;SDS011;31358;46.008;11.144;2023-03-05T00:31:43;30.15;;;17.40;;
45642;SDS011;31358;46.008;11.144;2023-03-05T00:34:11;29.17;;;17.60;;
45642;SDS011;31358;46.008;11.144;2023-03-05T00:36:39;30.90;;;19.20;;
45642;SDS011;31358;46.008;11.144;2023-03-05T00:39:05;30.20;;;16.23;;
45642;SDS011;31358;46.008;11.144;2023-03-05T00:41:31;28.67;;;17.65;;
45642;SDS011;31358;46.008;11.144;2023-03-05T00:43:57;33.65;;;17.10;;
45642;SDS011;31358;46.008;11.144;2023-03-05T00:46:23;32.42;;;18.05;;
45642;SDS011;31358;46.008;11.144;2023-03-05T00:48:51;28.55;;;18.40;;
45642;SDS011;31358;46.008;11.144;2023-03-05T00:51:17;30.98;;;18.95;;
45642;SDS011;31358;46.008;11.144;2023-03-05T00:53:43;29.27;;;16.40;;
45642;SDS011;31358;46.008;11.144;2023-03-05T00:56:09;27.27;;;15.55;;
45642;SDS011;31358;46.008;11.144;2023-03-05T00:58:35;28.42;;;15.48;;
45642;SDS011;31358;46.008;11.144;2023-03-05T01:01:01;28.08;;;14.85;;
45642;SDS011;31358;46.008;11.144;2023-03-05T01:03:28;30.88;;;17.45;;
45642;SDS011;31358;46.008;11.144;2023-03-05T01:05:54;29.25;;;16.00;;
45642;SDS011;31358;46.008;11.144;2023-03-05T01:08:21;31.33;;;17.05;;
45642;SDS011;31358;46.008;11.144;2023-03-05T01:10:47;35.55;;;18.00;;
45642;SDS011;31358;46.008;11.144;2023-03-05T01:13:13;29.60;;;15.60;;
45642;SDS011;31358;46.008;11.144;2023-03-05T01:15:39;24.77;;;14.68;;
45642;SDS011;31358;46.008;11.144;2023-03-05T01:18:05;31.48;;;16.50;;
45642;SDS011;31358;46.008;11.144;2023-03-05T01:20:30;32.58;;;18.08;;
45642;SDS011;31358;46.008;11.144;2023-03-05T01:22:56;28.15;;;16.83;;
45642;SDS011;31358;46.008;11.144;2023-03-05T01:25:23;28.80;;;16.50;;
45642;SDS011;31358;46.008;11.144;2023-03-05T01:27:49;27.05;;;15.75;;
45642;SDS011;31358;46.008;11.144;2023-03-05T01:30:15;34.47;;;18.45;;
45642;SDS011;31358;46.008;11.144;2023-03-05T01:32:41;32.17;;;17.35;;
45642;SDS011;31358;46.008;11.144;2023-03-05T01:35:10;29.00;;;16.48;;
45642;SDS011;31358;46.008;11.144;2023-03-05T01:37:41;26.67;;;15.90;;
45642;SDS011;31358;46.008;11.144;2023-03-05T01:40:08;31.98;;;18.48;;
45642;SDS011;31358;46.008;11.144;2023-03-05T01:42:34;28.63;;;16.35;;
45642;SDS011;31358;46.008;11.144;2023-03-05T01:45:11;27.00;;;14.45;;
45642;SDS011;31358;46.008;11.144;2023-03-05T01:47:39;27.45;;;15.55;;
45642;SDS011;31358;46.008;11.144;2023-03-05T01:50:05;26.17;;;13.82;;
45642;SDS011;31358;46.008;11.144;2023-03-05T01:52:34;27.77;;;15.05;;
45642;SDS011;31358;46.008;11.144;2023-03-05T01:55:04;33.88;;;17.17;;
45642;SDS011;31358;46.008;11.144;2023-03-05T01:57:34;29.00;;;15.85;;
45642;SDS011;31358;46.008;11.144;2023-03-05T02:00:05;31.73;;;16.85;;
45642;SDS011;31358;46.008;11.144;2023-03-05T02:02:34;29.55;;;15.93;;
45642;SDS011;31358;46.008;11.144;2023-03-05T02:05:07;30.33;;;17.23;;
45642;SDS011;31358;46.008;11.144;2023-03-05T02:07:37;30.05;;;13.48;;
45642;SDS011;31358;46.008;11.144;2023-03-05T02:10:16;24.77;;;13.13;;
45642;SDS011;31358;46.008;11.144;2023-03-05T02:12:43;21.88;;;12.68;;
45642;SDS011;31358;46.008;11.144;2023-03-05T02:15:09;21.27;;;12.38;;
45642;SDS011;31358;46.008;11.144;2023-03-05T02:17:36;26.25;;;15.00;;
45642;SDS011;31358;46.008;11.144;2023-03-05T02:20:05;22.08;;;12.50;;
45642;SDS011;31358;46.008;11.144;2023-03-05T02:22:34;29.13;;;14.50;;
45642;SDS011;31358;46.008;11.144;2023-03-05T02:25:00;24.85;;;13.93;;
45642;SDS011;31358;46.008;11.144;2023-03-05T02:27:27;26.25;;;12.82;;
45642;SDS011;31358;46.008;11.144;2023-03-05T02:29:59;24.88;;;14.13;;
45642;SDS011;31358;46.008;11.144;2023-03-05T02:32:25;25.08;;;13.63;;
45642;SDS011;31358;46.008;11.144;2023-03-05T02:34:51;25.23;;;13.50;;
45642;SDS011;31358;46.008;11.144;2023-03-05T02:37:17;21.70;;;13.70;;
45642;SDS011;31358;46.008;11.144;2023-03-05T02:39:43;26.17;;;15.23;;
45642;SDS011;31358;46.008;11.144;2023-03-05T02:42:09;26.90;;;14.93;;
45642;SDS011;31358;46.008;11.144;2023-03-05T02:44:34;30.00;;;17.05;;
45642;SDS011;31358;46.008;11.144;2023-03-05T02:47:00;32.08;;;18.20;;
45642;SDS011;31358;46.008;11.144;2023-03-05T02:49:27;25.25;;;14.73;;
45642;SDS011;31358;46.008;11.144;2023-03-05T02:51:53;23.15;;;13.52;;
45642;SDS011;31358;46.008;11.144;2023-03-05T02:54:18;22.73;;;13.30;;
45642;SDS011;31358;46.008;11.144;2023-03-05T02:56:44;22.55;;;12.13;;
45642;SDS011;31358;46.008;11.144;2023-03-05T02:59:10;21.27;;;12.88;;
45642;SDS011;31358;46.008;11.144;2023-03-05T03:01:35;22.60;;;12.13;;
45642;SDS011;31358;46.008;11.144;2023-03-05T03:04:01;25.10;;;12.35;;
45642;SDS011;31358;46.008;11.144;2023-03-05T03:06:27;24.92;;;12.10;;
45642;SDS011;31358;46.008;11.144;2023-03-05T03:08:52;22.65;;;10.95;;
45642;SDS011;31358;46.008;11.144;2023-03-05T03:11:18;18.02;;;9.75;;
45642;SDS011;31358;46.008;11.144;2023-03-05T03:13:45;18.50;;;10.65;;
45642;SDS011;31358;46.008;11.144;2023-03-05T03:16:11;18.70;;;9.20;;
45642;SDS011;31358;46.008;11.144;2023-03-05T03:18:38;19.42;;;9.98;;
45642;SDS011;31358;46.008;11.144;2023-03-05T03:21:04;18.02;;;9.65;;
45642;SDS011;31358;46.008;11.144;2023-03-05T03:23:31;18.90;;;9.80;;
45642;SDS011;31358;46.008;11.144;2023-03-05T03:25:57;20.45;;;10.05;;
45642;SDS011;31358;46.008;11.144;2023-03-05T03:28:23;19.45;;;11.05;;
45642;SDS011;31358;46.008;11.144;2023-03-05T03:30:49;19.40;;;9.10;;
45642;SDS011;31358;46.008;11.144;2023-03-05T03:33:15;16.58;;;9.65;;
45642;SDS011;31358;46.008;11.144;2023-03-05T03:35:42;18.08;;;10.23;;
45642;SDS011;31358;46.008;11.144;2023-03-05T03:38:11;18.25;;;9.93;;
45642;SDS011;31358;46.008;11.144;2023-03-05T03:40:38;19.63;;;10.27;;
45642;SDS011;31358;46.008;11.144;2023-03-05T03:43:05;16.85;;;9.73;;
45642;SDS011;31358;46.008;11.144;2023-03-05T03:45:31;21.42;;;11.23;;
45642;SDS011;31358;46.008;11.144;2023-03-05T03:47:57;17.70;;;9.73;;
45642;SDS011;31358;46.008;11.144;2023-03-05T03:50:23;17.55;;;8.43;;
45642;SDS011;31358;46.008;11.144;2023-03-05T03:52:50;16.05;;;9.52;;
45642;SDS011;31358;46.008;11.144;2023-03-05T03:55:16;17.00;;;9.23;;
45642;SDS011;31358;46.008;11.144;2023-03-05T03:57:41;16.38;;;8.73;;
45642;SDS011;31358;46.008;11.144;2023-03-05T04:00:08;20.25;;;8.70;;
45642;SDS011;31358;46.008;11.144;2023-03-05T04:02:35;21.67;;;9.98;;
45642;SDS011;31358;46.008;11.144;2023-03-05T04:05:01;17.52;;;9.65;;
45642;SDS011;31358;46.008;11.144;2023-03-05T04:07:27;15.20;;;9.05;;
45642;SDS011;31358;46.008;11.144;2023-03-05T04:09:53;17.52;;;9.18;;
45642;SDS011;31358;46.008;11.144;2023-03-05T04:12:19;17.10;;;9.10;;
45642;SDS011;31358;46.008;11.144;2023-03-05T04:14:46;12.82;;;8.38;;
45642;SDS011;31358;46.008;11.144;2023-03-05T04:17:12;14.98;;;8.57;;
45642;SDS011;31358;46.008;11.144;2023-03-05T04:19:39;15.57;;;8.35;;
45642;SDS011;31358;46.008;11.144;2023-03-05T04:22:09;16.40;;;8.02;;
45642;SDS011;31358;46.008;11.144;2023-03-05T04:24:39;17.10;;;8.32;;
45642;SDS011;31358;46.008;11.144;2023-03-05T04:27:05;23.70;;;8.40;;
45642;SDS011;31358;46.008;11.144;2023-03-05T04:29:31;15.23;;;8.80;;
45642;SDS011;31358;46.008;11.144;2023-03-05T04:31:57;13.20;;;8.05;;
45642;SDS011;31358;46.008;11.144;2023-03-05T04:34:23;17.67;;;8.65;;
45642;SDS011;31358;46.008;11.144;2023-03-05T04:36:49;13.70;;;7.07;;
45642;SDS011;31358;46.008;11.144;2023-03-05T04:39:15;14.43;;;7.28;;
45642;SDS011;31358;46.008;11.144;2023-03-05T04:41:41;13.65;;;8.20;;
45642;SDS011;31358;46.008;11.144;2023-03-05T04:44:07;16.13;;;7.95;;
45642;SDS011;31358;46.008;11.144;2023-03-05T04:46:32;13.68;;;7.65;;
45642;SDS011;31358;46.008;11.144;2023-03-05T04:48:58;13.85;;;7.38;;
45642;SDS011;31358;46.008;11.144;2023-03-05T04:51:24;15.70;;;7.07;;
45642;SDS011;31358;46.008;11.144;2023-03-05T04:53:49;13.57;;;7.40;;
45642;SDS011;31358;46.008;11.144;2023-03-05T04:56:15;14.65;;;9.02;;
45642;SDS011;31358;46.008;11.144;2023-03-05T04:58:41;13.85;;;7.80;;
45642;SDS011;31358;46.008;11.144;2023-03-05T05:01:07;13.43;;;7.43;;
45642;SDS011;31358;46.008;11.144;2023-03-05T05:03:32;14.43;;;7.90;;
45642;SDS011;31358;46.008;11.144;2023-03-05T05:05:59;14.60;;;8.32;;
45642;SDS011;31358;46.008;11.144;2023-03-05T05:08:25;14.70;;;6.97;;
45642;SDS011;31358;46.008;11.144;2023-03-05T05:10:58;14.65;;;7.60;;
45642;SDS011;31358;46.008;11.144;2023-03-05T05:13:25;13.67;;;6.97;;
45642;SDS011;31358;46.008;11.144;2023-03-05T05:15:51;12.32;;;7.07;;
45642;SDS011;31358;46.008;11.144;2023-03-05T05:18:17;15.00;;;6.68;;
45642;SDS011;31358;46.008;11.144;2023-03-05T05:20:43;12.55;;;6.38;;
45642;SDS011;31358;46.008;11.144;2023-03-05T05:23:08;10.98;;;4.90;;
45642;SDS011;31358;46.008;11.144;2023-03-05T05:25:34;11.05;;;5.20;;
45642;SDS011;31358;46.008;11.144;2023-03-05T05:28:00;11.07;;;5.45;;
45642;SDS011;31358;46.008;11.144;2023-03-05T05:30:25;10.85;;;5.82;;
45642;SDS011;31358;46.008;11.144;2023-03-05T05:32:51;15.07;;;4.85;;
45642;SDS011;31358;46.008;11.144;2023-03-05T05:35:16;11.60;;;4.57;;
45642;SDS011;31358;46.008;11.144;2023-03-05T05:37:42;10.13;;;4.80;;
45642;SDS011;31358;46.008;11.144;2023-03-05T05:40:08;11.20;;;4.90;;
45642;SDS011;31358;46.008;11.144;2023-03-05T05:42:34;10.32;;;5.13;;
45642;SDS011;31358;46.008;11.144;2023-03-05T05:45:00;12.68;;;5.85;;
45642;SDS011;31358;46.008;11.144;2023-03-05T05:47:27;9.50;;;4.60;;
45642;SDS011;31358;46.008;11.144;2023-03-05T05:49:53;12.85;;;5.97;;
45642;SDS011;31358;46.008;11.144;2023-03-05T05:52:20;10.77;;;5.72;;
45642;SDS011;31358;46.008;11.144;2023-03-05T05:54:46;11.85;;;6.07;;
45642;SDS011;31358;46.008;11.144;2023-03-05T05:57:12;9.10;;;5.53;;
45642;SDS011;31358;46.008;11.144;2023-03-05T05:59:38;13.30;;;5.32;;
45642;SDS011;31358;46.008;11.144;2023-03-05T06:02:04;9.85;;;5.20;;
45642;SDS011;31358;46.008;11.144;2023-03-05T06:04:32;12.50;;;6.78;;
45642;SDS011;31358;46.008;11.144;2023-03-05T06:06:58;14.25;;;5.78;;
45642;SDS011;31358;46.008;11.144;2023-03-05T06:09:24;12.38;;;6.63;;
45642;SDS011;31358;46.008;11.144;2023-03-05T06:11:50;10.25;;;5.78;;
45642;SDS011;31358;46.008;11.144;2023-03-05T06:14:15;13.95;;;6.28;;
45642;SDS011;31358;46.008;11.144;2023-03-05T06:16:41;12.80;;;7.07;;
45642;SDS011;31358;46.008;11.144;2023-03-05T06:19:08;10.27;;;5.32;;
45642;SDS011;31358;46.008;11.144;2023-03-05T06:21:37;12.63;;;6.53;;
45642;SDS011;31358;46.008;11.144;2023-03-05T06:24:02;12.80;;;6.50;;
45642;SDS011;31358;46.008;11.144;2023-03-05T06:26:28;13.23;;;5.72;;
45642;SDS011;31358;46.008;11.144;2023-03-05T06:28:54;11.05;;;5.95;;
45642;SDS011;31358;46.008;11.144;2023-03-05T06:31:23;11.70;;;6.50;;
45642;SDS011;31358;46.008;11.144;2023-03-05T06:33:51;10.77;;;5.38;;
45642;SDS011;31358;46.008;11.144;2023-03-05T06:36:23;9.85;;;5.30;;
45642;SDS011;31358;46.008;11.144;2023-03-05T06:38:50;10.48;;;4.85;;
45642;SDS011;31358;46.008;11.144;2023-03-05T06:41:17;10.93;;;5.28;;
45642;SDS011;31358;46.008;11.144;2023-03-05T06:43:45;8.13;;;4.57;;
45642;SDS011;31358;46.008;11.144;2023-03-05T06:46:15;10.07;;;4.93;;
45642;SDS011;31358;46.008;11.144;2023-03-05T06:48:42;14.75;;;5.72;;
45642;SDS011;31358;46.008;11.144;2023-03-05T06:51:12;11.93;;;5.30;;
45642;SDS011;31358;46.008;11.144;2023-03-05T06:53:42;15.63;;;6.00;;
45642;SDS011;31358;46.008;11.144;2023-03-05T06:56:09;13.52;;;6.57;;
45642;SDS011;31358;46.008;11.144;2023-03-05T06:58:35;10.10;;;5.63;;
45642;SDS011;31358;46.008;11.144;2023-03-05T07:01:00;10.02;;;5.90;;
45642;SDS011;31358;46.008;11.144;2023-03-05T07:03:29;17.50;;;9.68;;
45642;SDS011;31358;46.008;11.144;2023-03-05T07:05:54;17.48;;;8.32;;
45642;SDS011;31358;46.008;11.144;2023-03-05T07:08:20;18.92;;;9.82;;
45642;SDS011;31358;46.008;11.144;2023-03-05T07:10:46;17.92;;;9.25;;
45642;SDS011;31358;46.008;11.144;2023-03-05T07:13:11;71.55;;;29.95;;
45642;SDS011;31358;46.008;11.144;2023-03-05T07:15:37;16.75;;;8.85;;
45642;SDS011;31358;46.008;11.144;2023-03-05T07:18:04;12.73;;;6.20;;
45642;SDS011;31358;46.008;11.144;2023-03-05T07:20:32;8.95;;;5.60;;
45642;SDS011;31358;46.008;11.144;2023-03-05T07:22:59;12.93;;;6.45;;
45642;SDS011;31358;46.008;11.144;2023-03-05T07:25:25;12.02;;;6.07;;
45642;SDS011;31358;46.008;11.144;2023-03-05T07:27:50;10.40;;;5.45;;
45642;SDS011;31358;46.008;11.144;2023-03-05T07:30:16;15.88;;;6.78;;
45642;SDS011;31358;46.008;11.144;2023-03-05T07:32:42;13.98;;;5.30;;
45642;SDS011;31358;46.008;11.144;2023-03-05T07:35:08;15.10;;;7.50;;
45642;SDS011;31358;46.008;11.144;2023-03-05T07:37:34;16.70;;;7.20;;
45642;SDS011;31358;46.008;11.144;2023-03-05T07:40:00;14.77;;;6.45;;
45642;SDS011;31358;46.008;11.144;2023-03-05T07:42:25;10.00;;;5.43;;
45642;SDS011;31358;46.008;11.144;2023-03-05T07:44:51;11.25;;;5.50;;
45642;SDS011;31358;46.008;11.144;2023-03-05T07:47:17;11.55;;;6.20;;
45642;SDS011;31358;46.008;11.144;2023-03-05T07:49:43;14.70;;;6.88;;
45642;SDS011;31358;46.008;11.144;2023-03-05T07:52:08;12.75;;;5.28;;
45642;SDS011;31358;46.008;11.144;2023-03-05T07:54:37;13.02;;;4.80;;
45642;SDS011;31358;46.008;11.144;2023-03-05T07:57:04;11.02;;;5.53;;
45642;SDS011;31358;46.008;11.144;2023-03-05T07:59:30;13.93;;;5.57;;
45642;SDS011;31358;46.008;11.144;2023-03-05T08:01:56;10.65;;;5.20;;
45642;SDS011;31358;46.008;11.144;2023-03-05T08:04:22;10.60;;;4.32;;
45642;SDS011;31358;46.008;11.144;2023-03-05T08:06:48;10.70;;;4.72;;
45642;SDS011;31358;46.008;11.144;2023-03-05T08:09:14;8.52;;;4.53;;
45642;SDS011;31358;46.008;11.144;2023-03-05T08:11:40;9.88;;;4.60;;
45642;SDS011;31358;46.008;11.144;2023-03-05T08:14:06;9.00;;;4.40;;
45642;SDS011;31358;46.008;11.144;2023-03-05T08:16:32;11.25;;;5.43;;
45642;SDS011;31358;46.008;11.144;2023-03-05T08:18:58;10.27;;;4.22;;
45642;SDS011;31358;46.008;11.144;2023-03-05T08:21:29;9.55;;;4.03;;
45642;SDS011;31358;46.008;11.144;2023-03-05T08:23:57;8.65;;;4.63;;
45642;SDS011;31358;46.008;11.144;2023-03-05T08:26:25;6.15;;;3.42;;
45642;SDS011;31358;46.008;11.144;2023-03-05T08:28:52;8.93;;;4.35;;
45642;SDS011;31358;46.008;11.144;2023-03-05T08:31:19;6.30;;;3.65;;
45642;SDS011;31358;46.008;11.144;2023-03-05T08:33:50;7.40;;;3.80;;
45642;SDS011;31358;46.008;11.144;2023-03-05T08:36:17;9.27;;;3.95;;
45642;SDS011;31358;46.008;11.144;2023-03-05T08:38:43;7.70;;;3.33;;
45642;SDS011;31358;46.008;11.144;2023-03-05T08:41:10;11.25;;;4.63;;
45642;SDS011;31358;46.008;11.144;2023-03-05T08:43:37;7.95;;;3.70;;
45642;SDS011;31358;46.008;11.144;2023-03-05T08:46:03;8.52;;;3.58;;
45642;SDS011;31358;46.008;11.144;2023-03-05T08:48:30;6.60;;;3.42;;
45642;SDS011;31358;46.008;11.144;2023-03-05T08:50:56;7.57;;;2.88;;
45642;SDS011;31358;46.008;11.144;2023-03-05T08:53:28;9.85;;;3.83;;
45642;SDS011;31358;46.008;11.144;2023-03-05T08:55:54;7.95;;;3.10;;
45642;SDS011;31358;46.008;11.144;2023-03-05T08:58:21;7.45;;;3.17;;
45642;SDS011;31358;46.008;11.144;2023-03-05T09:00:47;6.38;;;3.05;;
45642;SDS011;31358;46.008;11.144;2023-03-05T09:03:12;5.60;;;2.80;;
45642;SDS011;31358;46.008;11.144;2023-03-05T09:05:38;7.95;;;3.10;;
45642;SDS011;31358;46.008;11.144;2023-03-05T09:08:03;9.98;;;3.58;;
45642;SDS011;31358;46.008;11.144;2023-03-05T09:10:29;9.27;;;4.47;;
45642;SDS011;31358;46.008;11.144;2023-03-05T09:12:55;10.32;;;3.65;;
45642;SDS011;31358;46.008;11.144;2023-03-05T09:15:20;7.85;;;2.75;;
45642;SDS011;31358;46.008;11.144;2023-03-05T09:17:46;7.43;;;3.30;;
45642;SDS011;31358;46.008;11.144;2023-03-05T09:20:12;6.50;;;3.17;;
45642;SDS011;31358;46.008;11.144;2023-03-05T09:22:39;6.70;;;3.28;;
45642;SDS011;31358;46.008;11.144;2023-03-05T09:25:05;10.77;;;3.92;;
45642;SDS011;31358;46.008;11.144;2023-03-05T09:27:32;8.55;;;4.75;;
45642;SDS011;31358;46.008;11.144;2023-03-05T09:30:02;8.63;;;4.55;;
45642;SDS011;31358;46.008;11.144;2023-03-05T09:32:29;10.18;;;5.53;;
45642;SDS011;31358;46.008;11.144;2023-03-05T09:34:55;14.52;;;5.80;;
45642;SDS011;31358;46.008;11.144;2023-03-05T09:37:21;8.32;;;3.72;;
45642;SDS011;31358;46.008;11.144;2023-03-05T09:39:47;9.15;;;4.25;;
45642;SDS011;31358;46.008;11.144;2023-03-05T09:45:08;8.82;;;4.28;;
45642;SDS011;31358;46.008;11.144;2023-03-05T09:50:22;11.77;;;4.68;;
45642;SDS011;31358;46.008;11.144;2023-03-05T09:55:56;7.85;;;3.63;;
45642;SDS011;31358;46.008;11.144;2023-03-05T09:58:33;10.02;;;4.97;;
45642;SDS011;31358;46.008;11.144;2023-03-05T10:01:00;12.18;;;6.45;;
45642;SDS011;31358;46.008;11.144;2023-03-05T10:09:06;13.30;;;4.85;;
45642;SDS011;31358;46.008;11.144;2023-03-05T10:14:01;14.15;;;5.55;;
45642;SDS011;31358;46.008;11.144;2023-03-05T10:22:22;12.90;;;5.47;;
45642;SDS011;31358;46.008;11.144;2023-03-05T10:30:46;12.02;;;7.28;;
45642;SDS011;31358;46.008;11.144;2023-03-05T10:37:47;10.45;;;4.72;;
45642;SDS011;31358;46.008;11.144;2023-03-05T10:45:49;7.35;;;3.47;;
45642;SDS011;31358;46.008;11.144;2023-03-05T10:51:20;10.40;;;4.25;;
45642;SDS011;31358;46.008;11.144;2023-03-05T10:54:07;11.05;;;4.18;;
45642;SDS011;31358;46.008;11.144;2023-03-05T10:59:43;9.70;;;5.68;;
45642;SDS011;31358;46.008;11.144;2023-03-05T11:02:15;8.40;;;4.13;;
45642;SDS011;31358;46.008;11.144;2023-03-05T11:04:43;7.85;;;3.92;;
45642;SDS011;31358;46.008;11.144;2023-03-05T11:09:40;8.85;;;4.30;;
45642;SDS011;31358;46.008;11.144;2023-03-05T11:12:13;7.05;;;4.10;;
45642;SDS011;31358;46.008;11.144;2023-03-05T11:14:46;8.48;;;3.75;;
45642;SDS011;31358;46.008;11.144;2023-03-05T11:25:50;6.20;;;2.92;;
45642;SDS011;31358;46.008;11.144;2023-03-05T11:28:19;7.07;;;2.72;;
45642;SDS011;31358;46.008;11.144;2023-03-05T11:31:21;11.63;;;4.57;;
45642;SDS011;31358;46.008;11.144;2023-03-05T11:33:39;8.55;;;4.68;;
45642;SDS011;31358;46.008;11.144;2023-03-05T11:36:28;8.55;;;3.78;;
45642;SDS011;31358;46.008;11.144;2023-03-05T11:38:55;24.50;;;3.97;;
45642;SDS011;31358;46.008;11.144;2023-03-05T11:41:28;8.02;;;3.22;;
45642;SDS011;31358;46.008;11.144;2023-03-05T11:43:57;9.50;;;3.78;;
45642;SDS011;31358;46.008;11.144;2023-03-05T11:46:27;9.73;;;3.83;;
45642;SDS011;31358;46.008;11.144;2023-03-05T11:48:55;6.15;;;3.47;;
45642;SDS011;31358;46.008;11.144;2023-03-05T11:51:26;7.07;;;3.25;;
45642;SDS011;31358;46.008;11.144;2023-03-05T11:54:02;6.88;;;3.13;;
45642;SDS011;31358;46.008;11.144;2023-03-05T11:56:37;7.13;;;3.58;;
45642;SDS011;31358;46.008;11.144;2023-03-05T11:59:10;6.18;;;2.97;;
45642;SDS011;31358;46.008;11.144;2023-03-05T12:01:45;5.63;;;2.85;;
45642;SDS011;31358;46.008;11.144;2023-03-05T12:04:19;7.15;;;2.92;;
45642;SDS011;31358;46.008;11.144;2023-03-05T12:09:40;5.97;;;2.38;;
45642;SDS011;31358;46.008;11.144;2023-03-05T12:20:26;5.72;;;2.70;;
45642;SDS011;31358;46.008;11.144;2023-03-05T12:23:00;7.18;;;3.15;;
45642;SDS011;31358;46.008;11.144;2023-03-05T12:25:27;6.78;;;3.13;;
45642;SDS011;31358;46.008;11.144;2023-03-05T12:29:00;8.70;;;3.45;;
45642;SDS011;31358;46.008;11.144;2023-03-05T12:38:46;9.30;;;4.80;;
45642;SDS011;31358;46.008;11.144;2023-03-05T12:46:32;17.00;;;7.07;;
45642;SDS011;31358;46.008;11.144;2023-03-05T12:51:57;31.40;;;15.98;;
45642;SDS011;31358;46.008;11.144;2023-03-05T12:57:00;17.77;;;9.85;;
45642;SDS011;31358;46.008;11.144;2023-03-05T12:59:41;23.13;;;12.45;;
45642;SDS011;31358;46.008;11.144;2023-03-05T13:02:19;19.00;;;12.35;;
45642;SDS011;31358;46.008;11.144;2023-03-05T13:04:45;19.25;;;11.63;;
45642;SDS011;31358;46.008;11.144;2023-03-05T13:07:15;24.52;;;12.57;;
45642;SDS011;31358;46.008;11.144;2023-03-05T13:09:50;18.45;;;11.18;;
45642;SDS011;31358;46.008;11.144;2023-03-05T13:12:20;20.35;;;13.35;;
45642;SDS011;31358;46.008;11.144;2023-03-05T13:14:47;23.20;;;12.50;;
45642;SDS011;31358;46.008;11.144;2023-03-05T13:19:56;25.73;;;12.68;;
45642;SDS011;31358;46.008;11.144;2023-03-05T13:22:24;22.73;;;12.98;;
45642;SDS011;31358;46.008;11.144;2023-03-05T13:27:37;21.80;;;12.63;;
45642;SDS011;31358;46.008;11.144;2023-03-05T13:30:03;21.17;;;14.35;;
45642;SDS011;31358;46.008;11.144;2023-03-05T13:32:30;21.85;;;14.00;;
45642;SDS011;31358;46.008;11.144;2023-03-05T13:34:57;22.65;;;13.75;;
45642;SDS011;31358;46.008;11.144;2023-03-05T13:37:32;25.50;;;13.57;;
45642;SDS011;31358;46.008;11.144;2023-03-05T13:40:03;23.70;;;14.88;;
45642;SDS011;31358;46.008;11.144;2023-03-05T13:42:45;23.50;;;13.48;;
45642;SDS011;31358;46.008;11.144;2023-03-05T13:45:29;26.60;;;14.98;;
45642;SDS011;31358;46.008;11.144;2023-03-05T13:47:57;25.33;;;14.73;;
45642;SDS011;31358;46.008;11.144;2023-03-05T13:50:31;23.35;;;14.20;;
45642;SDS011;31358;46.008;11.144;2023-03-05T13:55:55;28.88;;;16.40;;
45642;SDS011;31358;46.008;11.144;2023-03-05T14:04:15;26.40;;;16.55;;
45642;SDS011;31358;46.008;11.144;2023-03-05T14:09:30;34.15;;;16.15;;
45642;SDS011;31358;46.008;11.144;2023-03-05T14:14:46;32.17;;;18.88;;
45642;SDS011;31358;46.008;11.144;2023-03-05T14:17:19;30.45;;;16.58;;
45642;SDS011;31358;46.008;11.144;2023-03-05T14:19:52;31.63;;;18.13;;
45642;SDS011;31358;46.008;11.144;2023-03-05T14:22:45;29.52;;;18.77;;
45642;SDS011;31358;46.008;11.144;2023-03-05T14:30:45;27.73;;;18.05;;
45642;SDS011;31358;46.008;11.144;2023-03-05T14:33:12;26.48;;;17.35;;
45642;SDS011;31358;46.008;11.144;2023-03-05T14:35:38;28.45;;;18.70;;
45642;SDS011;31358;46.008;11.144;2023-03-05T14:38:14;30.67;;;18.60;;
45642;SDS011;31358;46.008;11.144;2023-03-05T14:40:48;29.05;;;19.80;;
45642;SDS011;31358;46.008;11.144;2023-03-05T14:43:14;32.47;;;18.90;;
45642;SDS011;31358;46.008;11.144;2023-03-05T14:45:41;35.50;;;19.85;;
45642;SDS011;31358;46.008;11.144;2023-03-05T14:48:09;33.80;;;19.05;;
45642;SDS011;31358;46.008;11.144;2023-03-05T14:50:37;33.97;;;19.48;;
45642;SDS011;31358;46.008;11.144;2023-03-05T14:53:18;32.33;;;20.67;;
45642;SDS011;31358;46.008;11.144;2023-03-05T14:55:51;28.27;;;17.73;;
45642;SDS011;31358;46.008;11.144;2023-03-05T14:58:22;30.58;;;19.88;;
45642;SDS011;31358;46.008;11.144;2023-03-05T15:00:51;27.60;;;18.92;;
45642;SDS011;31358;46.008;11.144;2023-03-05T15:03:18;36.75;;;21.92;;
45642;SDS011;31358;46.008;11.144;2023-03-05T15:05:45;32.95;;;20.02;;
45642;SDS011;31358;46.008;11.144;2023-03-05T15:08:14;32.83;;;21.33;;
45642;SDS011;31358;46.008;11.144;2023-03-05T15:10:42;32.47;;;20.67;;
45642;SDS011;31358;46.008;11.144;2023-03-05T15:13:08;35.00;;;21.15;;
45642;SDS011;31358;46.008;11.144;2023-03-05T15:15:34;36.72;;;19.67;;
45642;SDS011;31358;46.008;11.144;2023-03-05T15:17:59;42.40;;;23.60;;
45642;SDS011;31358;46.008;11.144;2023-03-05T15:20:27;34.45;;;21.92;;
45642;SDS011;31358;46.008;11.144;2023-03-05T15:22:54;33.20;;;20.40;;
45642;SDS011;31358;46.008;11.144;2023-03-05T15:25:20;33.35;;;19.65;;
45642;SDS011;31358;46.008;11.144;2023-03-05T15:27:47;32.13;;;20.80;;
45642;SDS011;31358;46.008;11.144;2023-03-05T15:30:18;33.55;;;21.10;;
45642;SDS011;31358;46.008;11.144;2023-03-05T15:32:54;37.40;;;23.17;;
45642;SDS011;31358;46.008;11.144;2023-03-05T15:35:22;36.70;;;21.75;;
45642;SDS011;31358;46.008;11.144;2023-03-05T15:37:49;39.60;;;23.20;;
45642;SDS011;31358;46.008;11.144;2023-03-05T15:40:15;45.65;;;23.25;;
45642;SDS011;31358;46.008;11.144;2023-03-05T15:42:41;90.88;;;25.65;;
45642;SDS011;31358;46.008;11.144;2023-03-05T15:45:07;36.28;;;20.20;;
45642;SDS011;31358;46.008;11.144;2023-03-05T15:47:33;44.72;;;20.95;;
45642;SDS011;31358;46.008;11.144;2023-03-05T15:49:59;36.30;;;21.85;;
45642;SDS011;31358;46.008;11.144;2023-03-05T15:52:24;32.40;;;20.90;;
45642;SDS011;31358;46.008;11.144;2023-03-05T15:54:50;33.95;;;22.77;;
45642;SDS011;31358;46.008;11.144;2023-03-05T15:57:16;38.15;;;21.65;;
45642;SDS011;31358;46.008;11.144;2023-03-05T15:59:46;33.83;;;21.58;;
45642;SDS011;31358;46.008;11.144;2023-03-05T16:02:12;38.13;;;22.02;;
45642;SDS011;31358;46.008;11.144;2023-03-05T16:04:37;42.97;;;22.67;;
45642;SDS011;31358;46.008;11.144;2023-03-05T16:07:03;35.35;;;22.08;;
45642;SDS011;31358;46.008;11.144;2023-03-05T16:09:30;36.90;;;21.90;;
45642;SDS011;31358;46.008;11.144;2023-03-05T16:12:00;34.40;;;21.88;;